createdAt,value
2018-12-05T00:00:36.271Z,90.00
2018-12-05T00:03:09.988Z,89.40
2018-12-05T00:05:41.445Z,88.40
2018-12-05T00:08:10.199Z,88.60
2018-12-05T00:10:38.769Z,88.60
2018-12-05T00:13:08.210Z,88.10
2018-12-05T00:15:36.939Z,88.20
2018-12-05T00:18:37.238Z,87.70
2018-12-05T00:21:05.941Z,88.40
2018-12-05T00:23:34.859Z,87.60
2018-12-05T00:26:03.592Z,88.10
2018-12-05T00:28:32.294Z,87.90
2018-12-05T00:31:01.376Z,87.50
2018-12-05T00:33:29.958Z,87.80
2018-12-05T00:35:58.440Z,87.30
2018-12-05T00:38:26.981Z,87.80
2018-12-05T00:40:55.571Z,87.90
2018-12-05T00:43:24.116Z,87.30
2018-12-05T00:45:52.673Z,87.90
2018-12-05T00:48:21.300Z,88.50
2018-12-05T00:50:50.051Z,87.90
2018-12-05T00:53:18.737Z,87.70
2018-12-05T00:55:47.346Z,88.00
2018-12-05T00:58:15.998Z,88.10
2018-12-05T01:00:44.861Z,88.20
2018-12-05T01:03:13.534Z,88.40
2018-12-05T01:05:42.131Z,88.10
2018-12-05T01:08:11.184Z,88.40
2018-12-05T01:10:40.718Z,88.50
2018-12-05T01:13:09.551Z,88.00
2018-12-05T01:15:38.625Z,88.70
2018-12-05T01:18:07.330Z,89.20
2018-12-05T01:20:35.914Z,88.50
2018-12-05T01:23:04.755Z,88.60
2018-12-05T01:25:33.770Z,87.30
2018-12-05T01:28:02.294Z,87.60
2018-12-05T01:30:31.198Z,87.50
2018-12-05T01:32:59.812Z,87.30
2018-12-05T01:35:28.437Z,86.90
2018-12-05T01:37:57.126Z,86.50
2018-12-05T01:40:25.965Z,86.70
2018-12-05T01:42:54.685Z,87.40
2018-12-05T01:45:23.267Z,85.60
2018-12-05T01:47:52.216Z,86.30
2018-12-05T01:50:20.783Z,86.10
2018-12-05T01:52:49.452Z,86.40
2018-12-05T01:55:18.278Z,85.80
2018-12-05T01:57:47.073Z,86.20
2018-12-05T02:00:15.675Z,86.40
2018-12-05T02:02:44.542Z,86.00
2018-12-05T02:05:13.466Z,86.30
2018-12-05T02:07:42.101Z,86.70
2018-12-05T02:10:11.258Z,86.80
2018-12-05T02:12:39.931Z,86.60
2018-12-05T02:15:08.687Z,86.80
2018-12-05T02:17:37.358Z,86.90
2018-12-05T02:20:06.373Z,87.30
2018-12-05T02:22:35.767Z,87.30
2018-12-05T02:25:04.583Z,87.30
2018-12-05T02:27:33.134Z,87.30
2018-12-05T02:30:01.642Z,87.20
2018-12-05T02:32:30.559Z,87.60
2018-12-05T02:34:59.172Z,87.90
2018-12-05T02:37:28.026Z,88.00
2018-12-05T02:39:57.030Z,87.70
2018-12-05T02:42:26.270Z,87.60
2018-12-05T02:44:54.925Z,87.90
2018-12-05T02:47:23.830Z,88.10
2018-12-05T02:49:52.466Z,88.40
2018-12-05T02:52:21.157Z,88.80
2018-12-05T02:54:49.842Z,89.00
2018-12-05T02:57:18.672Z,89.00
2018-12-05T02:59:47.175Z,89.10
2018-12-05T03:02:16.116Z,89.40
2018-12-05T03:04:44.625Z,89.00
2018-12-05T03:07:13.088Z,89.10
2018-12-05T03:09:42.339Z,89.60
2018-12-05T03:12:10.887Z,89.70
2018-12-05T03:14:39.428Z,90.20
2018-12-05T03:17:08.551Z,90.00
2018-12-05T03:19:37.247Z,90.10
2018-12-05T03:22:05.980Z,90.00
2018-12-05T03:24:34.767Z,90.10
2018-12-05T03:27:03.368Z,90.10
2018-12-05T03:29:31.963Z,90.00
2018-12-05T03:32:00.969Z,90.00
2018-12-05T03:34:29.549Z,90.00
2018-12-05T03:36:58.159Z,89.80
2018-12-05T03:39:26.663Z,89.80
2018-12-05T03:41:55.261Z,90.00
2018-12-05T03:44:23.927Z,89.90
2018-12-05T03:46:52.553Z,90.00
2018-12-05T03:49:21.141Z,90.00
2018-12-05T03:51:49.907Z,90.00
2018-12-05T03:54:18.726Z,90.10
2018-12-05T03:56:47.290Z,90.10
2018-12-05T03:59:15.930Z,90.20
2018-12-05T04:01:44.611Z,90.20
2018-12-05T04:04:13.142Z,90.20
2018-12-05T04:06:41.867Z,90.20
2018-12-05T04:09:10.469Z,90.20
2018-12-05T04:11:39.539Z,90.20
2018-12-05T04:14:08.107Z,90.20
2018-12-05T04:16:37.391Z,90.20
2018-12-05T04:19:06.003Z,90.30
2018-12-05T04:21:34.635Z,90.20
2018-12-05T04:24:03.174Z,90.20
2018-12-05T04:26:32.260Z,90.20
2018-12-05T04:29:00.965Z,90.10
2018-12-05T04:31:29.562Z,90.10
2018-12-05T04:33:58.162Z,90.20
2018-12-05T04:36:26.754Z,90.30
2018-12-05T04:38:55.378Z,90.40
2018-12-05T04:41:24.384Z,90.60
2018-12-05T04:43:53.150Z,90.70
2018-12-05T04:46:21.621Z,90.70
2018-12-05T04:48:50.435Z,90.70
2018-12-05T04:51:18.963Z,90.70
2018-12-05T04:53:47.637Z,90.70
2018-12-05T04:56:16.221Z,90.80
2018-12-05T04:58:45.105Z,90.70
2018-12-05T05:01:16.594Z,90.70
2018-12-05T05:03:45.470Z,90.90
2018-12-05T05:06:14.005Z,90.90
2018-12-05T05:08:42.496Z,90.90
2018-12-05T05:11:11.116Z,90.90
2018-12-05T05:13:39.625Z,90.80
2018-12-05T05:16:08.361Z,90.70
2018-12-05T05:18:37.464Z,90.70
2018-12-05T05:21:06.362Z,90.80
2018-12-05T05:23:34.870Z,90.70
2018-12-05T05:26:03.569Z,90.60
2018-12-05T05:28:32.284Z,90.70
2018-12-05T05:31:00.969Z,90.60
2018-12-05T05:33:29.642Z,90.60
2018-12-05T05:35:58.375Z,90.50
2018-12-05T05:38:27.083Z,90.50
2018-12-05T05:40:55.750Z,90.60
2018-12-05T05:43:24.505Z,90.70
2018-12-05T05:45:53.246Z,90.70
2018-12-05T05:48:21.867Z,90.70
2018-12-05T05:50:51.968Z,90.70
2018-12-05T05:53:20.845Z,90.60
2018-12-05T05:55:52.232Z,90.60
2018-12-05T05:58:20.736Z,90.60
2018-12-05T06:00:49.421Z,90.60
2018-12-05T06:03:18.330Z,90.60
2018-12-05T06:05:46.901Z,90.50
2018-12-05T06:08:15.902Z,90.60
2018-12-05T06:10:44.577Z,90.60
2018-12-05T06:13:13.262Z,90.50
2018-12-05T06:15:42.426Z,90.60
2018-12-05T06:18:11.450Z,90.60
2018-12-05T06:20:40.303Z,90.40
2018-12-05T06:23:09.026Z,90.30
2018-12-05T06:25:37.514Z,90.20
2018-12-05T06:28:06.053Z,90.20
2018-12-05T06:30:35.006Z,90.20
2018-12-05T06:33:03.576Z,90.20
2018-12-05T06:35:32.114Z,90.00
2018-12-05T06:38:00.977Z,89.90
2018-12-05T06:40:29.946Z,89.80
2018-12-05T06:42:59.026Z,89.50
2018-12-05T06:45:27.947Z,89.20
2018-12-05T06:47:56.808Z,89.20
2018-12-05T06:50:25.712Z,89.40
2018-12-05T06:52:55.026Z,89.30
2018-12-05T06:55:24.529Z,89.10
2018-12-05T06:57:53.259Z,89.20
2018-12-05T07:00:24.946Z,89.10
2018-12-05T07:02:57.082Z,89.20
2018-12-05T07:05:26.092Z,88.60
2018-12-05T07:08:15.589Z,88.70
2018-12-05T07:10:44.467Z,89.00
2018-12-05T07:13:14.633Z,89.50
2018-12-05T07:15:43.550Z,89.20
2018-12-05T07:18:13.263Z,89.20
2018-12-05T07:20:42.063Z,89.70
2018-12-05T07:23:12.052Z,90.00
2018-12-05T07:25:42.195Z,90.10
2018-12-05T07:28:11.260Z,90.20
2018-12-05T07:30:39.925Z,90.00
2018-12-05T07:33:08.667Z,90.00
2018-12-05T07:35:41.229Z,90.10
2018-12-05T07:38:10.249Z,89.90
2018-12-05T07:40:39.194Z,89.10
2018-12-05T07:43:11.102Z,88.90
2018-12-05T07:45:41.693Z,89.10
2018-12-05T07:48:12.783Z,89.00
2018-12-05T07:54:37.563Z,89.50
2018-12-05T08:02:41.587Z,89.20
2018-12-05T08:05:11.037Z,89.00
2018-12-05T08:14:11.379Z,89.10
2018-12-05T08:16:40.657Z,90.20
2018-12-05T08:19:09.721Z,90.10
2018-12-05T08:21:39.537Z,90.30
2018-12-05T08:24:08.692Z,90.00
2018-12-05T08:26:38.338Z,90.20
2018-12-05T08:29:07.103Z,89.50
2018-12-05T08:31:38.051Z,89.60
2018-12-05T08:34:07.245Z,88.30
2018-12-05T08:36:37.066Z,88.50
2018-12-05T08:39:14.563Z,89.40
2018-12-05T08:45:09.954Z,87.20
2018-12-05T08:47:42.112Z,88.20
2018-12-05T08:50:13.017Z,87.60
2018-12-05T08:52:42.516Z,87.70
2018-12-05T08:55:11.480Z,88.20
2018-12-05T08:57:40.671Z,87.20
2018-12-05T09:00:10.081Z,88.40
2018-12-05T09:02:39.024Z,87.90
2018-12-05T09:05:17.222Z,87.60
2018-12-05T09:07:47.063Z,86.20
2018-12-05T09:10:16.513Z,86.80
2018-12-05T09:12:46.818Z,86.70
2018-12-05T09:15:17.402Z,87.00
2018-12-05T09:17:46.333Z,87.20
2018-12-05T09:20:16.509Z,87.30
2018-12-05T09:22:45.381Z,87.60
2018-12-05T09:25:16.244Z,87.00
2018-12-05T09:27:45.456Z,86.60
2018-12-05T09:30:15.061Z,87.10
2018-12-05T09:32:50.830Z,87.30
2018-12-05T09:35:39.366Z,86.80
2018-12-05T09:38:23.642Z,87.20
2018-12-05T09:43:42.601Z,87.70
2018-12-05T09:46:17.636Z,86.90
2018-12-05T09:48:48.688Z,87.10
2018-12-05T09:51:17.851Z,87.20
2018-12-05T09:53:48.791Z,86.40
2018-12-05T09:56:20.471Z,86.30
2018-12-05T09:58:50.073Z,86.60
2018-12-05T10:01:33.593Z,86.60
2018-12-05T10:04:03.784Z,86.50
2018-12-05T10:06:34.888Z,86.10
2018-12-05T10:09:15.486Z,85.30
2018-12-05T10:11:45.277Z,85.00
2018-12-05T10:14:14.316Z,84.60
2018-12-05T10:16:49.617Z,85.00
2018-12-05T10:19:19.184Z,86.00
2018-12-05T10:21:49.145Z,86.10
2018-12-05T10:24:18.219Z,85.80
2018-12-05T10:26:47.542Z,85.50
2018-12-05T10:29:16.790Z,85.70
2018-12-05T10:31:45.789Z,85.10
2018-12-05T10:34:28.211Z,85.10
2018-12-05T10:40:02.791Z,85.50
2018-12-05T10:42:34.740Z,85.70
2018-12-05T10:45:04.827Z,84.20
2018-12-05T10:47:33.975Z,83.80
2018-12-05T10:50:05.615Z,83.20
2018-12-05T10:52:36.091Z,82.90
2018-12-05T10:55:06.000Z,83.40
2018-12-05T10:57:37.395Z,83.80
2018-12-05T11:00:09.547Z,84.60
2018-12-05T11:03:43.612Z,85.40
2018-12-05T11:06:18.466Z,86.10
2018-12-05T11:08:52.860Z,85.90
2018-12-05T11:11:28.207Z,85.70
2018-12-05T11:14:04.716Z,86.00
2018-12-05T11:16:41.735Z,86.10
2018-12-05T11:19:15.727Z,85.80
2018-12-05T11:22:50.434Z,85.80
2018-12-05T11:25:21.636Z,85.40
2018-12-05T11:27:51.831Z,85.10
2018-12-05T11:30:20.659Z,84.10
2018-12-05T11:32:49.544Z,84.00
2018-12-05T11:35:18.360Z,84.10
2018-12-05T11:38:22.523Z,84.30
2018-12-05T11:40:53.123Z,83.60
2018-12-05T11:46:24.203Z,81.40
2018-12-05T11:48:55.220Z,80.00
2018-12-05T11:51:26.555Z,80.30
2018-12-05T11:53:55.707Z,80.10
2018-12-05T11:56:24.574Z,79.20
2018-12-05T11:58:53.319Z,78.60
2018-12-05T12:01:22.611Z,78.30
2018-12-05T12:03:51.533Z,78.10
2018-12-05T12:06:20.534Z,77.40
2018-12-05T12:08:49.227Z,78.90
2018-12-05T12:11:17.875Z,79.20
2018-12-05T12:13:46.649Z,77.90
2018-12-05T12:16:15.806Z,78.40
2018-12-05T12:18:44.482Z,78.50
2018-12-05T12:21:13.223Z,77.40
2018-12-05T12:23:42.098Z,78.40
2018-12-05T12:26:11.140Z,79.20
2018-12-05T12:28:43.155Z,78.20
2018-12-05T12:31:12.018Z,75.50
2018-12-05T12:33:41.820Z,76.90
2018-12-05T12:36:10.639Z,77.90
2018-12-05T12:38:40.593Z,76.10
2018-12-05T12:41:11.255Z,76.10
2018-12-05T12:43:52.142Z,77.00
2018-12-05T12:46:32.169Z,77.30
2018-12-05T12:49:01.490Z,78.00
2018-12-05T12:51:31.125Z,78.40
2018-12-05T12:54:02.300Z,79.30
2018-12-05T12:56:33.838Z,79.40
2018-12-05T12:59:03.040Z,79.30
2018-12-05T13:01:33.177Z,79.10
2018-12-05T13:04:02.720Z,79.80
2018-12-05T13:06:31.609Z,77.70
2018-12-05T13:09:00.313Z,78.20
2018-12-05T13:11:29.554Z,78.70
2018-12-05T13:13:58.406Z,78.50
2018-12-05T13:16:27.438Z,78.80
2018-12-05T13:18:56.282Z,79.50
2018-12-05T13:21:25.737Z,78.90
2018-12-05T13:23:56.419Z,78.60
2018-12-05T13:26:27.038Z,78.60
2018-12-05T13:28:55.768Z,78.50
2018-12-05T13:31:25.603Z,79.00
2018-12-05T13:33:54.528Z,79.70
2018-12-05T13:39:01.638Z,79.20
2018-12-05T13:41:30.426Z,79.50
2018-12-05T13:44:01.019Z,80.10
2018-12-05T13:46:30.251Z,79.90
2018-12-05T13:48:59.477Z,79.30
2018-12-05T13:51:28.122Z,79.40
2018-12-05T13:53:56.983Z,79.60
2018-12-05T13:56:26.120Z,79.20
2018-12-05T13:58:54.903Z,79.90
2018-12-05T14:01:24.265Z,80.20
2018-12-05T14:03:53.530Z,80.20
2018-12-05T14:06:27.319Z,80.00
2018-12-05T14:08:56.425Z,80.20
2018-12-05T14:11:25.790Z,80.00
2018-12-05T14:13:54.786Z,80.80
2018-12-05T14:16:23.720Z,81.10
2018-12-05T14:18:52.611Z,80.70
2018-12-05T14:21:22.065Z,79.80
2018-12-05T14:23:52.205Z,80.50
2018-12-05T14:26:21.727Z,81.40
2018-12-05T14:28:50.594Z,81.10
2018-12-05T14:31:19.640Z,81.30
2018-12-05T14:33:48.539Z,81.60
2018-12-05T14:36:17.326Z,81.40
2018-12-05T14:38:47.450Z,82.10
2018-12-05T14:41:16.399Z,81.60
2018-12-05T14:43:45.650Z,81.50
2018-12-05T14:46:15.623Z,81.30
2018-12-05T14:48:45.381Z,82.10
2018-12-05T14:51:14.214Z,82.30
2018-12-05T14:53:45.236Z,82.50
2018-12-05T14:56:14.143Z,82.90
2018-12-05T14:58:43.148Z,82.60
2018-12-05T15:01:20.983Z,83.00
2018-12-05T15:03:50.086Z,83.30
2018-12-05T15:06:18.834Z,83.00
2018-12-05T15:08:47.473Z,82.70
2018-12-05T15:11:16.416Z,83.10
2018-12-05T15:13:45.650Z,83.40
2018-12-05T15:16:14.449Z,83.30
2018-12-05T15:18:43.479Z,83.30
2018-12-05T15:21:12.330Z,83.20
2018-12-05T15:23:47.691Z,83.30
2018-12-05T15:26:16.511Z,83.00
2018-12-05T15:28:45.342Z,83.30
2018-12-05T15:31:14.516Z,83.30
2018-12-05T15:33:43.195Z,83.20
2018-12-05T15:36:12.228Z,83.20
2018-12-05T15:38:40.947Z,83.60
2018-12-05T15:41:09.613Z,83.80
2018-12-05T15:43:38.659Z,83.80
2018-12-05T15:46:07.649Z,83.60
2018-12-05T15:48:36.485Z,83.70
2018-12-05T15:51:06.093Z,84.00
2018-12-05T15:53:34.759Z,84.00
2018-12-05T15:56:03.893Z,84.20
2018-12-05T15:58:32.921Z,84.20
2018-12-05T16:01:01.954Z,84.20
2018-12-05T16:03:30.892Z,84.50
2018-12-05T16:05:59.510Z,84.30
2018-12-05T16:08:28.371Z,84.50
2018-12-05T16:11:01.442Z,84.40
2018-12-05T16:13:30.547Z,84.40
2018-12-05T16:15:59.789Z,84.40
2018-12-05T16:18:28.665Z,84.70
2018-12-05T16:20:57.311Z,84.60
2018-12-05T16:26:16.588Z,84.50
2018-12-05T16:28:46.219Z,84.60
2018-12-05T16:31:15.089Z,84.50
2018-12-05T16:33:44.295Z,84.80
2018-12-05T16:36:12.976Z,84.90
2018-12-05T16:38:41.639Z,85.10
2018-12-05T16:41:10.495Z,85.10
2018-12-05T16:43:39.379Z,85.20
2018-12-05T16:46:08.082Z,85.20
2018-12-05T16:48:37.161Z,85.40
2018-12-05T16:51:06.506Z,85.60
2018-12-05T16:53:35.228Z,85.60
2018-12-05T16:56:03.829Z,85.60
2018-12-05T16:58:32.914Z,85.70
2018-12-05T17:03:40.774Z,85.60
2018-12-05T17:06:09.710Z,86.00
2018-12-05T17:08:38.454Z,86.20
2018-12-05T17:11:07.365Z,86.20
2018-12-05T17:13:40.225Z,86.50
2018-12-05T17:16:18.203Z,86.50
2018-12-05T17:18:46.727Z,86.70
2018-12-05T17:21:15.334Z,86.70
2018-12-05T17:23:44.195Z,86.70
2018-12-05T17:26:13.070Z,87.00
2018-12-05T17:28:41.901Z,87.00
2018-12-05T17:31:10.629Z,87.20
2018-12-05T17:33:39.455Z,87.40
2018-12-05T17:36:07.959Z,87.70
2018-12-05T17:38:37.005Z,87.90
2018-12-05T17:41:05.610Z,88.40
2018-12-05T17:43:34.926Z,88.30
2018-12-05T17:46:04.035Z,88.20
2018-12-05T17:48:32.695Z,88.00
2018-12-05T17:51:01.588Z,87.90
2018-12-05T17:53:30.280Z,87.70
2018-12-05T17:55:58.963Z,87.50
2018-12-05T17:58:27.917Z,87.50
2018-12-05T18:00:56.477Z,87.20
2018-12-05T18:03:25.186Z,87.20
2018-12-05T18:05:53.804Z,87.20
2018-12-05T18:08:23.422Z,87.00
2018-12-05T18:10:52.059Z,87.70
2018-12-05T18:13:20.798Z,86.90
2018-12-05T18:15:49.702Z,87.00
2018-12-05T18:18:18.836Z,86.90
2018-12-05T18:20:47.718Z,86.90
2018-12-05T18:23:16.868Z,86.90
2018-12-05T18:25:45.563Z,87.00
2018-12-05T18:28:14.302Z,87.00
2018-12-05T18:30:43.295Z,87.10
2018-12-05T18:33:12.170Z,87.10
2018-12-05T18:35:41.482Z,87.20
2018-12-05T18:38:10.820Z,87.50
2018-12-05T18:40:40.262Z,87.50
2018-12-05T18:43:08.929Z,87.80
2018-12-05T18:45:37.542Z,87.80
2018-12-05T18:48:06.410Z,87.70
2018-12-05T18:50:35.281Z,87.70
2018-12-05T18:53:04.167Z,87.80
2018-12-05T18:55:33.074Z,87.70
2018-12-05T18:58:01.659Z,87.70
2018-12-05T19:00:30.441Z,87.80
2018-12-05T19:03:00.185Z,88.10
2018-12-05T19:05:28.938Z,88.20
2018-12-05T19:07:57.502Z,88.10
2018-12-05T19:10:27.793Z,88.20
2018-12-05T19:12:58.995Z,88.20
2018-12-05T19:15:28.126Z,88.30
2018-12-05T19:17:56.933Z,88.40
2018-12-05T19:20:25.574Z,88.30
2018-12-05T19:22:54.347Z,88.30
2018-12-05T19:25:33.051Z,88.20
2018-12-05T19:28:01.790Z,88.00
2018-12-05T19:30:30.639Z,87.70
2018-12-05T19:32:59.242Z,87.10
2018-12-05T19:35:50.414Z,87.50
2018-12-05T19:38:19.157Z,87.60
2018-12-05T19:40:56.151Z,87.80
2018-12-05T19:43:25.278Z,87.90
2018-12-05T19:45:53.930Z,87.90
2018-12-05T19:48:23.408Z,87.90
2018-12-05T19:50:52.269Z,87.60
2018-12-05T19:53:26.035Z,87.40
2018-12-05T19:55:54.866Z,87.30
2018-12-05T19:58:23.912Z,87.40
2018-12-05T20:00:52.581Z,87.60
2018-12-05T20:03:21.498Z,87.60
2018-12-05T20:05:50.432Z,87.30
2018-12-05T20:08:19.624Z,87.60
2018-12-05T20:10:48.477Z,87.80
2018-12-05T20:13:17.158Z,87.70
2018-12-05T20:15:46.258Z,87.50
2018-12-05T20:18:15.063Z,87.50
2018-12-05T20:20:44.009Z,87.50
2018-12-05T20:23:13.043Z,87.10
2018-12-05T20:25:41.808Z,87.00
2018-12-05T20:28:11.565Z,87.00
2018-12-05T20:30:40.681Z,87.00
2018-12-05T20:33:09.780Z,86.90
2018-12-05T20:35:38.278Z,86.90
2018-12-05T20:38:07.024Z,87.00
2018-12-05T20:40:36.170Z,87.20
2018-12-05T20:43:05.349Z,87.30
2018-12-05T20:45:34.492Z,87.50
2018-12-05T20:48:03.587Z,87.40
2018-12-05T20:50:32.567Z,87.50
2018-12-05T20:53:01.254Z,87.50
2018-12-05T20:55:30.566Z,87.20
2018-12-05T20:57:59.426Z,87.30
2018-12-05T21:00:28.616Z,87.40
2018-12-05T21:02:57.788Z,87.40
2018-12-05T21:05:26.952Z,87.30
2018-12-05T21:07:56.057Z,87.10
2018-12-05T21:10:25.281Z,87.00
2018-12-05T21:12:53.903Z,87.30
2018-12-05T21:15:23.961Z,87.60
2018-12-05T21:17:52.609Z,87.60
2018-12-05T21:20:21.250Z,87.70
2018-12-05T21:22:50.370Z,87.60
2018-12-05T21:25:19.027Z,87.70
2018-12-05T21:27:48.066Z,88.50
2018-12-05T21:30:17.064Z,88.00
2018-12-05T21:32:45.898Z,88.20
2018-12-05T21:35:15.229Z,88.50
2018-12-05T21:37:44.320Z,88.60
2018-12-05T21:40:13.736Z,88.70
2018-12-05T21:42:42.418Z,88.80
2018-12-05T21:45:11.651Z,88.80
2018-12-05T21:47:40.741Z,88.60
2018-12-05T21:50:09.674Z,88.60
2018-12-05T21:52:38.394Z,88.80
2018-12-05T21:55:07.588Z,88.80
2018-12-05T21:57:36.981Z,88.60
2018-12-05T22:00:08.958Z,88.30
2018-12-05T22:02:38.463Z,88.20
2018-12-05T22:05:07.562Z,88.00
2018-12-05T22:07:36.375Z,88.00
2018-12-05T22:10:07.424Z,87.90
2018-12-05T22:12:36.299Z,87.80
2018-12-05T22:15:06.164Z,87.70
2018-12-05T22:17:34.969Z,87.90
2018-12-05T22:20:04.488Z,87.80
2018-12-05T22:22:33.439Z,87.60
2018-12-05T22:25:07.571Z,87.30
2018-12-05T22:27:36.412Z,87.20
2018-12-05T22:30:06.218Z,87.00
2018-12-05T22:32:35.771Z,87.00
2018-12-05T22:35:05.326Z,87.00
2018-12-05T22:37:34.111Z,86.90
2018-12-05T22:40:02.910Z,87.00
2018-12-05T22:42:31.802Z,86.80
2018-12-05T22:45:00.619Z,86.70
2018-12-05T22:47:29.468Z,86.80
2018-12-05T22:49:58.056Z,86.60
2018-12-05T22:52:27.615Z,86.30
2018-12-05T22:54:56.418Z,86.10
2018-12-05T22:57:27.487Z,86.20
2018-12-05T23:00:02.962Z,86.40
2018-12-05T23:02:31.904Z,86.30
2018-12-05T23:05:00.768Z,86.20
2018-12-05T23:07:29.600Z,86.40
2018-12-05T23:09:59.327Z,86.40
2018-12-05T23:12:28.244Z,86.20
2018-12-05T23:14:57.230Z,86.10
2018-12-05T23:17:26.944Z,86.30
2018-12-05T23:19:55.742Z,85.90
2018-12-05T23:22:24.484Z,85.80
2018-12-05T23:24:53.181Z,85.80
2018-12-05T23:27:21.975Z,85.70
2018-12-05T23:29:54.283Z,85.70
2018-12-05T23:32:23.090Z,85.80
2018-12-05T23:34:51.794Z,85.80
2018-12-05T23:37:20.424Z,86.10
2018-12-05T23:39:49.560Z,86.50
2018-12-05T23:42:18.318Z,86.00
2018-12-05T23:44:46.993Z,85.90
2018-12-05T23:47:15.601Z,86.00
2018-12-05T23:49:44.284Z,86.00
2018-12-05T23:52:13.223Z,86.10
2018-12-05T23:54:42.201Z,86.10
2018-12-05T23:57:11.056Z,86.50
2018-12-05T23:59:39.854Z,86.30
